Time;durP1;ratioP1;P1;durP2;ratioP2;P2;SDS_P1;SDS_P2;PMS_P1;PMS_P2;Temp;Humidity;BMP_temperature;BMP_pressure;BME280_temperature;BME280_humidity;BME280_pressure;Samples;Min_cycle;Max_cycle;Signal;HPM_P1;HPM_P2
2021/08/08 00:01:12;;;;;;;;;3.50;2.75;;;;;18.07;54.08;100440.34;5080323;28;45413;-58
2021/08/08 00:03:37;;;;;;;;;3.50;1.50;;;;;18.03;53.94;100435.16;5080107;28;45358;-59
2021/08/08 00:06:02;;;;;;;;;3.25;2.25;;;;;18.01;54.30;100429.06;5079181;28;45422;-58
2021/08/08 00:08:30;;;;;;;;;4.50;2.00;;;;;17.99;54.12;100438.06;5080112;28;45307;-59
2021/08/08 00:10:55;;;;;;;;;5.25;3.00;;;;;17.95;54.59;100433.81;5080477;28;45245;-58
2021/08/08 00:13:21;;;;;;;;;3.50;3.00;;;;;17.92;54.54;100437.44;5079946;28;45667;-58
2021/08/08 00:15:46;;;;;;;;;6.25;3.00;;;;;17.85;54.50;100452.84;5080413;28;45398;-58
2021/08/08 00:18:12;;;;;;;;;3.75;1.50;;;;;17.83;54.53;100448.56;5079732;28;45150;-59
2021/08/08 00:20:37;;;;;;;;;2.00;2.00;;;;;17.80;54.18;100446.91;5080085;27;45225;-58
2021/08/08 00:23:03;;;;;;;;;3.50;2.00;;;;;17.79;54.54;100447.84;5079965;28;45285;-58
2021/08/08 00:25:29;;;;;;;;;1.25;1.00;;;;;17.78;54.58;100447.94;5080197;28;45508;-59
2021/08/08 00:27:54;;;;;;;;;3.25;2.00;;;;;17.74;54.05;100444.56;5079609;28;45457;-58
2021/08/08 00:30:19;;;;;;;;;1.25;1.00;;;;;17.75;54.47;100451.59;5080062;27;45298;-59
2021/08/08 00:32:45;;;;;;;;;2.75;2.50;;;;;17.75;54.34;100443.63;5078321;28;45354;-59
2021/08/08 00:35:11;;;;;;;;;3.50;1.00;;;;;17.74;54.63;100447.22;5080171;27;45342;-58
2021/08/08 00:37:37;;;;;;;;;2.25;2.00;;;;;17.70;54.64;100451.81;5079803;28;45449;-58
2021/08/08 00:40:04;;;;;;;;;2.00;2.00;;;;;17.69;54.57;100451.88;5079858;27;45260;-58
2021/08/08 00:42:29;;;;;;;;;4.00;4.00;;;;;17.67;54.74;100445.78;5078305;28;45205;-58
2021/08/08 00:44:55;;;;;;;;;5.00;4.50;;;;;17.65;54.75;100448.50;5080030;28;45206;-58
2021/08/08 00:47:20;;;;;;;;;7.50;5.75;;;;;17.64;54.87;100449.44;5078042;28;47525;-58
2021/08/08 00:49:46;;;;;;;;;6.00;5.00;;;;;17.61;54.89;100452.25;5079841;28;45242;-58
2021/08/08 00:52:11;;;;;;;;;8.00;6.00;;;;;17.55;55.05;100440.13;5078416;28;45401;-59
2021/08/08 00:54:37;;;;;;;;;6.50;6.50;;;;;17.57;54.81;100450.66;5079953;28;45255;-58
2021/08/08 00:57:02;;;;;;;;;4.00;4.00;;;;;17.55;54.90;100447.25;5079203;28;46154;-58
2021/08/08 00:59:28;;;;;;;;;6.50;5.75;;;;;17.52;54.97;100442.94;5079976;28;45228;-58
2021/08/08 01:01:54;;;;;;;;;6.00;4.75;;;;;17.46;55.19;100451.19;5079406;28;45853;-59
2021/08/08 01:04:29;;;;;;;;;1.75;1.75;;;;;17.47;55.05;100455.59;5079745;28;45374;-58
2021/08/08 01:07:01;;;;;;;;;6.75;5.00;;;;;17.43;55.19;100456.63;5078199;28;48257;-58
2021/08/08 01:09:29;;;;;;;;;3.00;3.00;;;;;17.42;55.21;100454.94;5079375;28;45201;-58
2021/08/08 01:11:56;;;;;;;;;5.50;5.50;;;;;17.40;55.37;100456.81;5079467;28;45317;-58
2021/08/08 01:14:23;;;;;;;;;4.00;4.00;;;;;17.38;55.29;100462.19;5079238;28;45390;-59
2021/08/08 01:16:50;;;;;;;;;3.50;3.50;;;;;17.32;55.15;100457.16;5079315;28;45260;-58
2021/08/08 01:19:21;;;;;;;;;3.00;3.00;;;;;17.31;55.51;100460.75;5082616;28;45232;-59
2021/08/08 01:21:49;;;;;;;;;6.25;3.75;;;;;17.30;55.21;100461.69;5081568;28;45461;-58
2021/08/08 01:24:15;;;;;;;;;4.25;3.00;;;;;17.30;55.20;100466.13;5082620;28;45399;-58
2021/08/08 01:26:42;;;;;;;;;5.75;4.25;;;;;17.28;55.32;100465.34;5082836;28;45269;-58
2021/08/08 01:29:07;;;;;;;;;3.50;3.50;;;;;17.27;55.29;100464.50;5082619;28;45490;-58
2021/08/08 01:31:33;;;;;;;;;3.75;3.75;;;;;17.20;55.15;100457.72;5082517;27;45481;-58
2021/08/08 01:33:58;;;;;;;;;6.25;4.00;;;;;17.21;55.49;100470.94;5082597;28;45393;-59
2021/08/08 01:36:24;;;;;;;;;1.25;1.25;;;;;17.14;55.51;100461.50;5082617;28;45982;-58
2021/08/08 01:39:00;;;;;;;;;2.00;2.00;;;;;17.20;55.60;100477.16;5082594;28;45208;-59
2021/08/08 01:41:28;;;;;;;;;3.00;1.00;;;;;17.17;55.65;100473.81;5081530;27;45267;-59
2021/08/08 01:43:56;;;;;;;;;4.25;3.00;;;;;17.14;55.60;100466.81;5082309;28;45252;-58
2021/08/08 01:46:25;;;;;;;;;3.00;3.00;;;;;17.16;55.59;100466.78;5081063;28;45389;-58
2021/08/08 01:48:53;;;;;;;;;5.00;3.00;;;;;17.11;55.40;100458.16;5082217;28;45473;-58
2021/08/08 01:51:20;;;;;;;;;5.00;4.00;;;;;17.16;55.74;100464.97;5082460;27;45541;-58
2021/08/08 01:53:46;;;;;;;;;2.00;2.00;;;;;17.13;55.50;100465.13;5082191;28;45326;-59
2021/08/08 01:56:12;;;;;;;;;2.00;2.00;;;;;17.15;55.53;100473.00;5080758;28;45381;-58
2021/08/08 01:58:38;;;;;;;;;2.50;1.75;;;;;17.17;55.81;100468.50;5082067;28;45169;-58
2021/08/08 02:01:03;;;;;;;;;5.25;3.25;;;;;17.16;55.74;100464.13;5080959;27;45260;-59
2021/08/08 02:03:37;;;;;;;;;3.75;2.75;;;;;17.14;55.52;100473.94;5080587;28;45555;-59
2021/08/08 02:06:04;;;;;;;;;3.50;3.50;;;;;17.12;55.47;100475.78;5082246;28;45437;-58
2021/08/08 02:08:30;;;;;;;;;3.50;2.00;;;;;17.11;55.53;100469.63;5081901;28;45496;-58
2021/08/08 02:10:56;;;;;;;;;2.75;2.75;;;;;17.11;55.82;100474.94;5080869;28;45342;-58
2021/08/08 02:13:22;;;;;;;;;3.75;2.25;;;;;17.10;55.69;100477.69;5080478;28;45429;-58
2021/08/08 02:15:47;;;;;;;;;5.75;3.00;;;;;17.13;55.87;100472.22;5080565;28;46285;-59
2021/08/08 02:18:12;;;;;;;;;4.75;3.00;;;;;17.12;55.74;100474.03;5081727;28;45445;-58
2021/08/08 02:20:38;;;;;;;;;2.25;1.50;;;;;17.09;55.99;100471.50;5080810;28;45694;-59
2021/08/08 02:23:04;;;;;;;;;5.00;3.50;;;;;17.13;55.95;100482.84;5081569;28;45340;-59
2021/08/08 02:25:29;;;;;;;;;4.25;4.25;;;;;17.13;55.82;100485.50;5081724;28;45344;-59
2021/08/08 02:27:54;;;;;;;;;3.50;2.50;;;;;17.11;55.87;100484.72;5081503;28;45363;-59
2021/08/08 02:30:20;;;;;;;;;5.50;4.75;;;;;17.07;56.14;100484.00;5079467;28;45261;-59
2021/08/08 02:32:45;;;;;;;;;3.25;2.00;;;;;17.11;55.81;100493.53;5081294;28;45593;-58
2021/08/08 02:35:12;;;;;;;;;4.25;3.25;;;;;17.10;56.06;100489.16;5080345;28;48190;-59
2021/08/08 02:37:37;;;;;;;;;2.75;2.00;;;;;17.09;56.22;100492.72;5081590;28;45224;-59
2021/08/08 02:40:03;;;;;;;;;2.75;2.00;;;;;17.10;55.87;100486.50;5080413;27;45257;-58
2021/08/08 02:42:28;;;;;;;;;3.00;3.00;;;;;17.12;55.97;100500.56;5081364;28;45429;-58
2021/08/08 02:44:54;;;;;;;;;2.00;2.00;;;;;17.10;55.98;100506.88;5081414;28;46294;-59
2021/08/08 02:47:19;;;;;;;;;2.00;2.00;;;;;17.06;56.10;100503.50;5081161;28;45220;-58
2021/08/08 02:49:45;;;;;;;;;7.50;4.00;;;;;17.07;56.18;100507.88;5080142;27;45334;-59
2021/08/08 02:52:10;;;;;;;;;4.00;2.75;;;;;17.05;56.06;100505.28;5081241;28;45335;-58
2021/08/08 02:54:37;;;;;;;;;4.75;2.25;;;;;17.03;56.03;100500.97;5079943;28;47558;-59
2021/08/08 02:57:03;;;;;;;;;5.00;3.75;;;;;16.99;56.18;100502.91;5063041;28;45654;-58
2021/08/08 02:59:28;;;;;;;;;6.75;4.00;;;;;17.03;56.45;100501.84;5081520;28;45247;-58
2021/08/08 03:01:53;;;;;;;;;3.00;3.00;;;;;17.06;56.18;100503.50;5080880;28;45293;-59
2021/08/08 03:04:19;;;;;;;;;5.25;4.25;;;;;17.03;56.34;100509.81;5081348;28;45331;-58
2021/08/08 03:06:45;;;;;;;;;4.25;3.25;;;;;17.01;56.55;100516.13;5081089;28;45314;-59
2021/08/08 03:09:11;;;;;;;;;4.50;3.00;;;;;16.98;56.24;100505.63;5081325;28;45398;-58
2021/08/08 03:11:37;;;;;;;;;3.25;3.25;;;;;16.98;56.52;100508.28;5079629;28;45322;-58
2021/08/08 03:14:02;;;;;;;;;6.00;3.50;;;;;17.00;56.15;100503.78;5080835;28;45299;-58
2021/08/08 03:16:27;;;;;;;;;2.75;2.50;;;;;17.01;56.61;100511.66;5080755;28;45362;-59
2021/08/08 03:18:53;;;;;;;;;5.25;3.50;;;;;16.99;56.42;100502.03;5081470;28;45295;-58
2021/08/08 03:21:18;;;;;;;;;4.50;3.75;;;;;17.01;56.09;100514.31;5080668;28;45413;-58
2021/08/08 03:23:43;;;;;;;;;5.00;5.00;;;;;17.01;56.61;100510.81;5080798;28;45570;-59
2021/08/08 03:26:09;;;;;;;;;7.00;4.75;;;;;16.97;56.59;100512.72;5080873;28;45211;-58
2021/08/08 03:28:34;;;;;;;;;3.25;2.75;;;;;16.96;56.74;100513.66;5081055;28;45404;-58
2021/08/08 03:30:59;;;;;;;;;6.00;5.00;;;;;16.97;56.36;100522.50;5080807;28;45295;-58
2021/08/08 03:33:25;;;;;;;;;8.75;6.00;;;;;16.97;56.76;100519.84;5080472;28;45334;-59
2021/08/08 03:35:50;;;;;;;;;3.25;3.25;;;;;16.97;56.56;100523.34;5080848;27;45342;-58
2021/08/08 03:38:16;;;;;;;;;4.50;4.00;;;;;16.95;56.36;100519.03;5080944;28;45405;-58
2021/08/08 03:40:41;;;;;;;;;5.00;4.00;;;;;16.96;56.63;100518.97;5080400;27;45488;-58
2021/08/08 03:43:07;;;;;;;;;4.00;3.25;;;;;16.94;56.53;100530.59;5080600;28;46084;-58
2021/08/08 03:45:32;;;;;;;;;5.75;4.75;;;;;16.92;56.52;100522.69;5080496;28;45322;-58
2021/08/08 03:47:57;;;;;;;;;8.25;4.00;;;;;16.94;56.56;100525.28;5080686;28;45243;-58
2021/08/08 03:50:23;;;;;;;;;4.00;4.00;;;;;16.91;56.67;100531.59;5079176;28;45726;-58
2021/08/08 03:52:48;;;;;;;;;7.00;6.00;;;;;16.90;56.67;100533.34;5080739;28;45293;-58
2021/08/08 03:55:13;;;;;;;;;4.25;4.25;;;;;16.88;56.60;100529.03;5080278;28;45299;-58
2021/08/08 03:57:39;;;;;;;;;3.25;3.25;;;;;16.83;57.02;100534.53;5080617;28;45275;-58
2021/08/08 04:00:05;;;;;;;;;6.25;3.00;;;;;16.83;56.63;100525.69;5078929;27;45272;-58
2021/08/08 04:02:30;;;;;;;;;7.00;5.00;;;;;16.81;57.08;100525.78;5078713;28;46967;-58
2021/08/08 04:04:55;;;;;;;;;6.75;5.25;;;;;16.81;56.74;100528.44;5080116;28;45422;-58
2021/08/08 04:07:21;;;;;;;;;6.25;5.00;;;;;16.80;56.92;100525.84;5080628;28;45487;-58
2021/08/08 04:09:46;;;;;;;;;6.50;4.25;;;;;16.79;56.61;100525.00;5078933;28;45303;-58
2021/08/08 04:12:11;;;;;;;;;6.50;5.00;;;;;16.76;56.78;100527.78;5080199;28;46049;-58
2021/08/08 04:14:37;;;;;;;;;4.00;3.75;;;;;16.75;56.91;100523.38;5080131;28;45509;-58
2021/08/08 04:17:04;;;;;;;;;5.00;5.00;;;;;16.73;56.62;100526.13;5080452;28;45282;-58
2021/08/08 04:19:30;;;;;;;;;5.50;3.50;;;;;16.73;56.80;100535.88;5080002;28;45313;-58
2021/08/08 04:21:55;;;;;;;;;6.00;4.50;;;;;16.73;56.71;100538.53;5079823;28;45467;-58
2021/08/08 04:24:21;;;;;;;;;4.00;4.00;;;;;16.72;57.04;100547.41;5080029;28;45240;-58
2021/08/08 04:26:46;;;;;;;;;9.25;7.25;;;;;16.70;56.72;100544.84;5080286;28;45291;-58
2021/08/08 04:29:11;;;;;;;;;7.00;3.75;;;;;16.70;56.86;100547.50;5079979;28;45323;-58
2021/08/08 04:31:37;;;;;;;;;4.50;4.25;;;;;16.67;56.73;100552.06;5079863;27;45392;-58
2021/08/08 04:34:02;;;;;;;;;7.25;6.25;;;;;16.65;56.89;100554.75;5079804;28;45351;-58
2021/08/08 04:36:27;;;;;;;;;7.00;5.75;;;;;16.63;57.00;100553.09;5078882;28;45457;-58
2021/08/08 04:38:53;;;;;;;;;3.50;3.00;;;;;16.60;57.10;100561.19;5079914;28;45441;-58
2021/08/08 04:41:18;;;;;;;;;7.75;5.50;;;;;16.57;56.96;100563.03;5079920;28;45339;-58
2021/08/08 04:43:43;;;;;;;;;6.00;5.25;;;;;16.52;56.94;100565.03;5079658;28;45289;-58
2021/08/08 04:46:09;;;;;;;;;10.00;4.00;;;;;16.50;57.29;100566.00;5080313;28;45272;-58
2021/08/08 04:48:34;;;;;;;;;8.50;5.75;;;;;16.46;56.98;100569.72;5078198;28;45507;-58
2021/08/08 04:50:59;;;;;;;;;1.00;1.00;;;;;16.42;56.81;100561.88;5080038;28;46347;-58
2021/08/08 04:53:25;;;;;;;;;5.75;4.50;;;;;16.39;57.08;100562.03;5081792;28;45260;-58
2021/08/08 04:55:50;;;;;;;;;8.50;6.00;;;;;16.37;57.28;100563.88;5083551;28;45571;-58
2021/08/08 04:58:16;;;;;;;;;7.75;5.25;;;;;16.34;57.12;100563.13;5081988;28;45429;-58
2021/08/08 05:00:41;;;;;;;;;6.00;6.00;;;;;16.29;56.95;100559.81;5083087;27;45439;-58
2021/08/08 05:03:06;;;;;;;;;9.75;7.25;;;;;16.30;56.95;100567.72;5082984;28;45271;-58
2021/08/08 05:05:32;;;;;;;;;4.00;4.00;;;;;16.30;57.34;100567.72;5083375;28;45219;-58
2021/08/08 05:07:57;;;;;;;;;5.50;5.00;;;;;16.31;57.06;100568.56;5083125;28;45434;-58
2021/08/08 05:10:24;;;;;;;;;7.75;4.50;;;;;16.28;56.95;100572.22;5082977;27;46865;-58
2021/08/08 05:12:54;;;;;;;;;7.50;6.25;;;;;16.28;57.15;100571.38;5082868;28;45492;-58
2021/08/08 05:15:19;;;;;;;;;6.50;5.00;;;;;16.23;57.07;100568.88;5082985;28;45315;-58
2021/08/08 05:17:45;;;;;;;;;6.75;5.75;;;;;16.25;57.00;100573.19;5082738;28;45420;-58
2021/08/08 05:20:11;;;;;;;;;8.75;4.50;;;;;16.24;57.27;100563.50;5081564;27;46196;-58
2021/08/08 05:22:36;;;;;;;;;7.00;4.50;;;;;16.29;57.25;100573.94;5082690;28;45398;-58
2021/08/08 05:25:03;;;;;;;;;5.75;4.25;;;;;16.30;56.92;100567.72;5082964;28;45240;-58
2021/08/08 05:27:29;;;;;;;;;5.25;4.00;;;;;16.29;56.90;100551.84;5082610;28;45346;-58
2021/08/08 05:29:54;;;;;;;;;7.00;5.75;;;;;16.32;57.25;100568.50;5082534;27;46053;-58
2021/08/08 05:32:20;;;;;;;;;5.50;5.00;;;;;16.36;56.74;100571.91;5082378;28;45272;-58
2021/08/08 05:34:46;;;;;;;;;5.25;4.00;;;;;16.35;57.00;100563.09;5082608;28;45420;-58
2021/08/08 05:37:12;;;;;;;;;6.75;5.75;;;;;16.40;56.88;100562.88;5082567;28;45434;-58
2021/08/08 05:39:38;;;;;;;;;6.25;4.00;;;;;16.42;56.87;100564.53;5082648;28;45316;-57
2021/08/08 05:42:03;;;;;;;;;9.50;5.75;;;;;16.42;56.96;100566.34;5082313;27;45319;-58
2021/08/08 05:44:29;;;;;;;;;6.25;4.50;;;;;16.43;56.85;100570.72;5082770;28;45303;-58
2021/08/08 05:46:54;;;;;;;;;4.50;3.00;;;;;16.43;57.15;100573.38;5082168;28;45255;-58
2021/08/08 05:49:19;;;;;;;;;4.00;4.00;;;;;16.45;57.29;100578.59;5082502;28;46372;-58
2021/08/08 05:51:45;;;;;;;;;5.00;3.75;;;;;16.44;57.07;100577.75;5082275;28;45292;-58
2021/08/08 05:54:10;;;;;;;;;7.00;5.00;;;;;16.47;57.02;100574.13;5081139;28;45255;-58
2021/08/08 05:56:35;;;;;;;;;9.75;5.75;;;;;16.52;57.02;100588.03;5081082;28;45401;-58
2021/08/08 05:59:01;;;;;;;;;7.75;4.00;;;;;16.54;56.65;100583.50;5082298;28;45164;-58
2021/08/08 06:01:26;;;;;;;;;5.75;4.25;;;;;16.55;57.06;100586.13;5081835;28;45254;-58
2021/08/08 06:03:51;;;;;;;;;8.00;5.75;;;;;16.57;56.84;100592.22;5081054;28;45292;-58
2021/08/08 06:06:17;;;;;;;;;5.25;5.25;;;;;16.56;57.08;100594.94;5082021;28;45417;-58
2021/08/08 06:08:42;;;;;;;;;5.25;5.25;;;;;16.55;57.26;100594.09;5082301;28;45137;-58
2021/08/08 06:11:08;;;;;;;;;7.25;5.00;;;;;16.58;56.81;100604.56;5082034;27;45217;-58
2021/08/08 06:13:33;;;;;;;;;6.50;6.50;;;;;16.60;56.98;100600.97;5080924;28;45343;-58
2021/08/08 06:15:59;;;;;;;;;7.75;6.75;;;;;16.62;57.28;100602.66;5081895;28;45417;-58
2021/08/08 06:18:24;;;;;;;;;6.25;5.25;;;;;16.65;56.84;100604.31;5081900;28;45275;-58
2021/08/08 06:20:49;;;;;;;;;4.75;4.75;;;;;16.65;57.03;100609.63;5080467;27;45451;-58
2021/08/08 06:23:15;;;;;;;;;5.50;4.25;;;;;16.69;57.47;100611.19;5081933;28;45347;-58
2021/08/08 06:25:40;;;;;;;;;7.50;4.75;;;;;16.72;56.81;100611.94;5081881;28;46240;-58
2021/08/08 06:28:05;;;;;;;;;4.25;4.25;;;;;16.74;57.04;100615.41;5081846;28;45475;-58
2021/08/08 06:30:31;;;;;;;;;5.75;5.00;;;;;16.76;56.91;100614.47;5081888;28;45313;-58
2021/08/08 06:32:56;;;;;;;;;4.00;4.00;;;;;16.74;57.15;100614.53;5081639;28;45338;-58
2021/08/08 06:35:21;;;;;;;;;9.50;3.75;;;;;16.77;57.27;100606.44;5081833;27;45303;-58
2021/08/08 06:37:47;;;;;;;;;5.00;4.00;;;;;16.83;56.82;100618.56;5080291;28;47368;-58
2021/08/08 06:40:13;;;;;;;;;5.75;4.75;;;;;16.83;56.99;100621.22;5081682;27;45367;-57
2021/08/08 06:42:38;;;;;;;;;7.00;5.75;;;;;16.81;57.04;100626.59;5081602;28;45411;-58
2021/08/08 06:45:05;;;;;;;;;6.00;4.00;;;;;16.85;57.09;100627.34;5081663;28;45236;-57
2021/08/08 06:47:30;;;;;;;;;6.25;6.25;;;;;16.86;56.90;100621.97;5081314;28;46459;-58
2021/08/08 06:49:56;;;;;;;;;7.25;6.00;;;;;16.86;56.79;100629.09;5081523;27;45215;-57
2021/08/08 06:52:21;;;;;;;;;4.00;4.00;;;;;16.88;56.87;100627.25;5081508;28;45228;-57
2021/08/08 06:54:46;;;;;;;;;6.75;5.25;;;;;16.90;56.95;100620.06;5081347;28;45259;-58
2021/08/08 06:57:21;;;;;;;;;4.75;4.75;;;;;16.93;56.88;100637.66;5081081;28;45185;-57
2021/08/08 06:59:46;;;;;;;;;4.50;3.00;;;;;16.94;57.07;100636.75;5081309;28;45306;-57
2021/08/08 07:02:11;;;;;;;;;7.50;5.00;;;;;16.96;56.91;100641.06;5079823;28;45465;-57
2021/08/08 07:04:36;;;;;;;;;8.25;5.50;;;;;16.94;56.55;100634.09;5081407;28;45355;-57
2021/08/08 07:07:02;;;;;;;;;5.25;4.00;;;;;16.97;56.76;100650.75;5081248;28;45295;-57
2021/08/08 07:09:27;;;;;;;;;8.50;5.50;;;;;16.97;56.67;100653.41;5081146;28;45198;-57
2021/08/08 07:11:53;;;;;;;;;6.00;5.00;;;;;16.97;56.60;100645.44;5081212;28;45271;-58
2021/08/08 07:14:18;;;;;;;;;7.00;6.00;;;;;16.98;56.68;100656.91;5081223;28;45326;-58
2021/08/08 07:16:43;;;;;;;;;5.25;3.75;;;;;16.99;56.64;100653.34;5078931;28;47187;-57
2021/08/08 07:19:08;;;;;;;;;9.75;6.75;;;;;16.99;56.54;100656.00;5081156;28;45400;-57
2021/08/08 07:21:34;;;;;;;;;4.00;4.00;;;;;16.97;56.84;100642.78;5080837;27;45389;-57
2021/08/08 07:23:59;;;;;;;;;7.00;5.00;;;;;16.97;56.57;100639.28;5080950;28;45750;-58
2021/08/08 07:26:24;;;;;;;;;4.00;4.00;;;;;16.98;56.45;100648.94;5080787;28;46089;-58
2021/08/08 07:28:50;;;;;;;;;5.25;5.00;;;;;17.01;56.40;100649.69;5080787;28;45345;-58
2021/08/08 07:31:15;;;;;;;;;9.75;6.00;;;;;17.01;56.55;100656.81;5080567;28;45425;-58
2021/08/08 07:33:41;;;;;;;;;6.00;6.00;;;;;17.02;56.69;100650.56;5080705;28;45259;-58
2021/08/08 07:36:06;;;;;;;;;6.00;2.25;;;;;17.03;56.51;100666.44;5080696;27;45243;-58
2021/08/08 07:38:31;;;;;;;;;4.75;4.50;;;;;17.06;56.46;100657.47;5080790;28;45323;-58
2021/08/08 07:40:56;;;;;;;;;4.00;3.00;;;;;17.07;56.52;100656.53;5080801;27;45417;-58
2021/08/08 07:43:22;;;;;;;;;7.25;4.75;;;;;17.12;56.33;100662.50;5080566;28;45437;-58
2021/08/08 07:45:47;;;;;;;;;3.00;3.00;;;;;17.15;56.33;100669.47;5080531;28;46156;-58
2021/08/08 07:48:12;;;;;;;;;5.00;5.00;;;;;17.17;56.58;100678.25;5080428;28;45363;-58
2021/08/08 07:50:38;;;;;;;;;5.00;5.00;;;;;17.18;56.50;100679.97;5080609;27;45239;-58
2021/08/08 07:53:05;;;;;;;;;6.00;5.00;;;;;17.19;56.29;100677.25;5080589;28;45315;-58
2021/08/08 07:55:31;;;;;;;;;7.50;6.25;;;;;17.22;56.67;100684.22;5080226;28;46191;-58
2021/08/08 07:57:56;;;;;;;;;3.75;2.00;;;;;17.17;56.52;100673.81;5080305;28;45199;-58
2021/08/08 08:00:21;;;;;;;;;8.00;7.00;;;;;17.22;56.71;100685.09;5080551;27;45379;-58
2021/08/08 08:02:47;;;;;;;;;8.00;4.25;;;;;17.22;56.48;100694.84;5080364;28;45363;-58
2021/08/08 08:05:12;;;;;;;;;6.25;5.50;;;;;17.20;56.89;100700.22;5080163;28;46115;-58
2021/08/08 08:07:37;;;;;;;;;6.00;6.00;;;;;17.26;56.76;100696.44;5080363;28;45185;-58
2021/08/08 08:10:04;;;;;;;;;6.75;5.50;;;;;17.28;56.73;100683.97;5080278;28;45208;-58
2021/08/08 08:12:30;;;;;;;;;5.75;4.75;;;;;17.29;56.92;100696.28;5080170;28;45381;-58
2021/08/08 08:14:55;;;;;;;;;5.25;3.25;;;;;17.32;56.67;100679.38;5079833;28;45457;-58
2021/08/08 08:17:20;;;;;;;;;6.00;5.00;;;;;17.35;56.30;100689.88;5080143;28;45335;-58
2021/08/08 08:19:46;;;;;;;;;5.25;3.50;;;;;17.37;56.49;100706.59;5080235;28;45421;-58
2021/08/08 08:22:15;;;;;;;;;6.25;5.00;;;;;17.41;56.66;100705.53;5080072;28;45382;-58
2021/08/08 08:24:42;;;;;;;;;4.00;4.00;;;;;17.47;56.58;100707.06;5079813;28;45756;-58
2021/08/08 08:27:07;;;;;;;;;4.75;4.25;;;;;17.48;56.46;100696.38;5080357;28;45363;-57
2021/08/08 08:29:32;;;;;;;;;5.25;5.00;;;;;17.52;56.46;100708.59;5083685;28;45454;-57
2021/08/08 08:31:58;;;;;;;;;10.25;4.00;;;;;17.53;56.43;100702.34;5083454;27;45370;-57
2021/08/08 08:34:23;;;;;;;;;9.50;4.75;;;;;17.59;56.23;100709.19;5083282;28;45269;-57
2021/08/08 08:36:48;;;;;;;;;7.00;5.25;;;;;17.71;56.34;100715.75;5083728;28;45226;-57
2021/08/08 08:39:14;;;;;;;;;7.50;3.75;;;;;17.75;56.23;100719.13;5083653;28;45215;-58
2021/08/08 08:41:40;;;;;;;;;9.00;6.00;;;;;17.78;56.31;100721.66;5083627;27;45348;-57
2021/08/08 08:44:06;;;;;;;;;8.00;4.75;;;;;17.80;56.02;100717.16;5083439;28;46166;-58
2021/08/08 08:46:33;;;;;;;;;6.25;5.25;;;;;17.83;55.89;100730.28;5083268;28;45402;-57
2021/08/08 08:48:58;;;;;;;;;7.50;4.00;;;;;17.92;55.88;100724.53;5083215;28;45564;-57
2021/08/08 08:51:27;;;;;;;;;8.00;7.00;;;;;17.90;55.83;100714.91;5083219;27;45348;-58
2021/08/08 08:53:54;;;;;;;;;9.00;8.00;;;;;17.96;55.93;100733.28;5081785;28;47370;-57
2021/08/08 08:56:20;;;;;;;;;5.75;5.00;;;;;18.04;55.66;100731.16;5083217;28;45305;-58
2021/08/08 08:58:46;;;;;;;;;7.00;6.00;;;;;18.07;55.52;100723.00;5083110;28;45534;-58
2021/08/08 09:01:11;;;;;;;;;8.75;7.50;;;;;18.12;55.58;100728.13;5083048;27;45563;-58
2021/08/08 09:03:36;;;;;;;;;5.00;4.00;;;;;18.06;55.32;100742.56;5082966;28;46170;-58
2021/08/08 09:06:03;;;;;;;;;4.75;4.00;;;;;18.19;55.52;100730.44;5083197;28;45293;-58
2021/08/08 09:08:28;;;;;;;;;5.00;5.00;;;;;18.26;55.38;100724.84;5081858;28;45376;-58
2021/08/08 09:11:02;;;;;;;;;5.00;5.00;;;;;18.32;55.03;100721.88;5083081;27;45433;-58
2021/08/08 09:13:27;;;;;;;;;6.75;5.75;;;;;18.38;55.28;100729.59;5081378;28;47210;-57
2021/08/08 09:15:53;;;;;;;;;4.50;4.00;;;;;18.42;54.91;100728.50;5082856;28;45256;-59
2021/08/08 09:18:23;;;;;;;;;5.00;5.00;;;;;18.46;54.98;100727.41;5082764;28;45735;-57
2021/08/08 09:20:50;;;;;;;;;6.00;5.00;;;;;18.56;54.75;100735.81;5065112;28;45353;-58
2021/08/08 09:23:17;;;;;;;;;6.25;4.25;;;;;18.59;54.51;100726.81;5081878;28;45321;-58
2021/08/08 09:25:54;;;;;;;;;4.50;4.50;;;;;18.64;54.45;100738.09;5081710;28;45294;-58
2021/08/08 09:28:27;;;;;;;;;6.75;5.75;;;;;18.72;54.63;100746.59;5080581;28;45370;-58
2021/08/08 09:30:53;;;;;;;;;2.50;2.50;;;;;18.75;54.07;100742.94;5081554;27;45309;-58
2021/08/08 09:33:18;;;;;;;;;3.25;3.25;;;;;18.79;54.04;100739.16;5081150;28;45533;-59
2021/08/08 09:35:44;;;;;;;;;5.50;5.00;;;;;18.85;54.12;100736.22;5081584;27;45240;-59
2021/08/08 09:38:12;;;;;;;;;6.25;5.25;;;;;18.93;53.72;100768.69;5081370;28;45524;-59
2021/08/08 09:40:39;;;;;;;;;4.00;3.75;;;;;18.96;53.53;100752.56;5081376;27;45488;-59
2021/08/08 09:43:06;;;;;;;;;6.75;5.00;;;;;18.98;53.30;100744.47;5080073;28;47138;-59
2021/08/08 09:45:40;;;;;;;;;5.50;4.75;;;;;19.04;53.16;100738.00;5081224;28;45343;-59
2021/08/08 09:48:09;;;;;;;;;3.50;3.50;;;;;19.10;52.67;100743.03;5081376;28;45465;-59
2021/08/08 09:50:34;;;;;;;;;5.00;5.00;;;;;19.13;53.09;100754.41;5081076;28;45523;-59
2021/08/08 09:53:02;;;;;;;;;3.50;3.00;;;;;19.16;52.59;100735.59;5081148;28;45319;-59
2021/08/08 09:55:34;;;;;;;;;5.75;4.50;;;;;19.26;52.38;100743.13;5081091;28;45235;-59
2021/08/08 09:58:01;;;;;;;;;4.00;2.50;;;;;19.31;52.68;100746.41;5081428;28;45295;-59
2021/08/08 10:00:28;;;;;;;;;4.00;3.00;;;;;19.37;51.85;100755.88;5081021;28;45482;-59
2021/08/08 10:02:54;;;;;;;;;3.50;3.50;;;;;19.36;52.31;100748.81;5079537;28;46062;-59
2021/08/08 10:05:20;;;;;;;;;6.75;4.00;;;;;19.40;52.56;100755.75;5080888;28;45189;-59
2021/08/08 10:07:47;;;;;;;;;8.00;3.50;;;;;19.45;52.45;100762.56;5081060;28;45461;-59
2021/08/08 10:10:12;;;;;;;;;4.00;4.00;;;;;19.52;52.13;100771.13;5080895;27;45595;-59
2021/08/08 10:12:44;;;;;;;;;6.00;5.00;;;;;19.57;52.09;100766.41;5079311;28;46050;-59
2021/08/08 10:15:11;;;;;;;;;4.00;4.00;;;;;19.60;52.05;100768.03;5080990;28;45441;-59
2021/08/08 10:17:42;;;;;;;;;6.00;4.50;;;;;19.58;51.87;100760.09;5080644;28;45458;-59
2021/08/08 10:20:08;;;;;;;;;3.25;3.25;;;;;19.62;51.60;100764.34;5080846;27;45250;-59
2021/08/08 10:22:35;;;;;;;;;5.00;5.00;;;;;19.67;51.72;100760.59;5037970;27;1223316;-59
2021/08/08 10:25:01;;;;;;;;;4.75;3.25;;;;;19.71;51.20;100765.69;5081932;28;45325;-59
2021/08/08 10:27:29;;;;;;;;;6.00;4.50;;;;;19.74;51.69;100773.50;5081703;28;45314;-60
2021/08/08 10:29:56;;;;;;;;;4.25;2.50;;;;;19.78;51.09;100777.72;5080672;28;45264;-59
2021/08/08 10:32:27;;;;;;;;;5.00;4.75;;;;;19.88;51.19;100758.63;5080031;28;45437;-59
2021/08/08 10:34:56;;;;;;;;;4.25;2.00;;;;;19.97;51.06;100764.34;5069883;28;45457;-59
2021/08/08 10:37:24;;;;;;;;;3.00;3.00;;;;;20.06;51.10;100773.66;5081710;28;45183;-60
2021/08/08 10:39:51;;;;;;;;;3.50;3.00;;;;;20.14;51.37;100771.44;5081592;28;45386;-59
2021/08/08 10:42:18;;;;;;;;;3.00;3.00;;;;;20.25;50.77;100762.84;5081140;28;46609;-60
2021/08/08 10:44:51;;;;;;;;;3.00;2.00;;;;;20.33;50.92;100757.09;5081693;28;45314;-59
2021/08/08 10:47:25;;;;;;;;;3.00;3.00;;;;;20.46;50.31;100773.28;5081272;28;45393;-60
2021/08/08 10:49:51;;;;;;;;;5.00;3.50;;;;;20.50;50.74;100798.84;5080585;28;45328;-59
2021/08/08 10:52:17;;;;;;;;;4.75;3.00;;;;;20.54;50.55;100803.09;5079792;28;47001;-59
2021/08/08 10:54:45;;;;;;;;;4.75;2.75;;;;;20.61;50.30;100774.25;5081257;28;45421;-59
2021/08/08 10:57:11;;;;;;;;;3.75;3.75;;;;;20.70;50.39;100783.53;5081341;28;45221;-60
2021/08/08 10:59:48;;;;;;;;;3.25;3.25;;;;;20.80;49.72;100770.56;5081439;28;45181;-57
2021/08/08 11:02:15;;;;;;;;;2.00;2.00;;;;;20.92;50.30;100760.06;5081078;28;45375;-58
2021/08/08 11:04:42;;;;;;;;;6.00;4.50;;;;;21.07;49.58;100766.31;5079752;28;45581;-58
2021/08/08 11:07:08;;;;;;;;;3.00;3.00;;;;;21.23;49.69;100763.63;5080248;28;45330;-58
2021/08/08 11:09:37;;;;;;;;;6.25;2.25;;;;;21.40;49.97;100765.28;5081100;28;45435;-59
2021/08/08 11:12:04;;;;;;;;;3.50;2.50;;;;;21.59;49.93;100769.56;5079583;28;48257;-60
2021/08/08 11:14:30;;;;;;;;;5.00;4.00;;;;;21.82;50.10;100765.47;5080826;28;45285;-59
2021/08/08 11:17:00;;;;;;;;;7.75;3.00;;;;;22.08;49.87;100768.38;5081017;28;45377;-58
2021/08/08 11:19:32;;;;;;;;;4.75;4.50;;;;;22.35;49.46;100776.50;5080849;28;45524;-59